createdAt,value
2019-01-26T00:01:46.382Z,5.60
2019-01-26T00:04:15.996Z,6.62
2019-01-26T00:06:45.619Z,11.65
2019-01-26T00:09:15.322Z,5.12
2019-01-26T00:11:45.011Z,7.55
2019-01-26T00:14:14.645Z,7.08
2019-01-26T00:16:46.742Z,6.40
2019-01-26T00:19:16.355Z,6.67
2019-01-26T00:21:46.166Z,5.30
2019-01-26T00:24:15.795Z,5.10
2019-01-26T00:26:45.399Z,8.58
2019-01-26T00:29:15.017Z,4.47
2019-01-26T00:31:44.624Z,5.22
2019-01-26T00:34:14.308Z,7.30
2019-01-26T00:36:43.946Z,9.95
2019-01-26T00:39:13.569Z,3.62
2019-01-26T00:41:45.658Z,6.87
2019-01-26T00:44:15.290Z,8.05
2019-01-26T00:46:44.929Z,5.15
2019-01-26T00:49:14.561Z,6.90
2019-01-26T00:51:44.175Z,4.65
2019-01-26T00:54:13.785Z,7.30
2019-01-26T00:56:43.407Z,12.68
2019-01-26T00:59:13.169Z,12.18
2019-01-26T01:01:42.856Z,4.80
2019-01-26T01:04:12.630Z,4.37
2019-01-26T01:06:42.247Z,8.15
2019-01-26T01:09:11.865Z,4.92
2019-01-26T01:11:41.579Z,8.48
2019-01-26T01:14:11.285Z,5.28
2019-01-26T01:16:40.912Z,9.70
2019-01-26T01:19:10.682Z,6.15
2019-01-26T01:21:40.384Z,3.52
2019-01-26T01:24:10.066Z,7.33
2019-01-26T01:26:42.659Z,6.55
2019-01-26T01:29:12.352Z,4.35
2019-01-26T01:31:46.660Z,8.10
2019-01-26T01:34:16.848Z,3.85
2019-01-26T01:36:46.469Z,4.72
2019-01-26T01:39:16.299Z,5.95
2019-01-26T01:41:46.016Z,5.03
2019-01-26T01:44:15.623Z,5.50
2019-01-26T01:46:45.246Z,2.90
2019-01-26T01:49:14.853Z,3.65
2019-01-26T01:51:44.459Z,4.12
2019-01-26T01:54:14.076Z,6.08
2019-01-26T01:56:43.776Z,3.33
2019-01-26T01:59:13.392Z,7.78
2019-01-26T02:01:43.084Z,5.12
2019-01-26T02:04:18.905Z,5.55
2019-01-26T02:06:48.503Z,3.15
2019-01-26T02:09:18.134Z,5.15
2019-01-26T02:11:47.749Z,5.45
2019-01-26T02:14:17.446Z,7.47
2019-01-26T02:16:50.205Z,8.28
2019-01-26T02:19:18.376Z,2.95
2019-01-26T02:21:48.079Z,11.05
2019-01-26T02:24:17.709Z,10.10
2019-01-26T02:26:47.396Z,3.15
2019-01-26T02:29:19.448Z,4.67
2019-01-26T02:31:49.081Z,5.20
2019-01-26T02:34:23.278Z,4.20
2019-01-26T02:36:52.885Z,6.20
2019-01-26T02:39:22.503Z,7.25
2019-01-26T02:41:52.202Z,4.85
2019-01-26T02:44:21.831Z,2.85
2019-01-26T02:46:57.804Z,5.33
2019-01-26T02:49:22.762Z,6.03
2019-01-26T02:51:52.375Z,4.25
2019-01-26T02:54:22.031Z,4.05
2019-01-26T02:56:53.500Z,2.55
2019-01-26T02:59:24.749Z,6.03
2019-01-26T03:01:54.360Z,11.53
2019-01-26T03:04:24.010Z,12.30
2019-01-26T03:06:53.773Z,5.22
2019-01-26T03:09:23.426Z,7.62
2019-01-26T03:11:53.047Z,5.17
2019-01-26T03:14:22.671Z,6.90
2019-01-26T03:16:52.277Z,3.50
2019-01-26T03:19:21.903Z,3.27
2019-01-26T03:21:51.539Z,11.30
2019-01-26T03:24:22.262Z,4.08
2019-01-26T03:26:53.909Z,2.00
2019-01-26T03:29:23.531Z,4.90
2019-01-26T03:31:53.193Z,11.15
2019-01-26T03:34:22.795Z,8.35
2019-01-26T03:36:53.401Z,4.70
2019-01-26T03:39:22.997Z,5.12
2019-01-26T03:41:52.689Z,2.67
2019-01-26T03:44:22.312Z,3.40
2019-01-26T03:46:51.979Z,2.55
2019-01-26T03:49:21.609Z,2.35
2019-01-26T03:51:51.228Z,5.03
2019-01-26T03:54:20.904Z,5.60
2019-01-26T03:56:50.526Z,4.20
2019-01-26T03:59:20.293Z,3.65
2019-01-26T04:01:50.152Z,3.22
2019-01-26T04:04:21.600Z,5.33
2019-01-26T04:06:51.216Z,7.58
2019-01-26T04:09:20.910Z,5.35
2019-01-26T04:11:50.521Z,4.42
2019-01-26T04:14:23.602Z,2.70
2019-01-26T04:16:53.204Z,9.28
2019-01-26T04:19:23.632Z,2.87
2019-01-26T04:21:53.265Z,6.45
2019-01-26T04:24:22.884Z,4.85
2019-01-26T04:26:52.558Z,2.17
2019-01-26T04:29:22.172Z,9.65
2019-01-26T04:31:51.792Z,6.65
2019-01-26T04:34:21.613Z,11.22
2019-01-26T04:36:51.230Z,5.55
2019-01-26T04:39:20.992Z,3.85
2019-01-26T04:41:50.631Z,5.22
2019-01-26T04:44:20.357Z,2.67
2019-01-26T04:46:49.966Z,4.03
2019-01-26T04:49:19.596Z,4.42
2019-01-26T04:51:49.299Z,3.37
2019-01-26T04:54:18.941Z,8.30
2019-01-26T04:56:49.541Z,4.08
2019-01-26T04:59:19.188Z,2.80
2019-01-26T05:01:48.854Z,2.35
2019-01-26T05:04:18.588Z,3.55
2019-01-26T05:06:48.195Z,9.13
2019-01-26T05:09:19.296Z,2.70
2019-01-26T05:11:48.916Z,4.87
2019-01-26T05:14:21.388Z,4.90
2019-01-26T05:16:50.996Z,3.02
2019-01-26T05:19:20.748Z,6.80
2019-01-26T05:22:01.970Z,5.47
2019-01-26T05:24:31.585Z,4.05
2019-01-26T05:27:01.304Z,4.35
2019-01-26T05:29:30.919Z,3.58
2019-01-26T05:32:00.531Z,4.65
2019-01-26T05:34:31.198Z,3.37
2019-01-26T05:37:00.821Z,2.35
2019-01-26T05:39:32.605Z,2.35
2019-01-26T05:42:02.314Z,2.77
2019-01-26T05:44:31.999Z,2.47
2019-01-26T05:47:01.616Z,3.10
2019-01-26T05:49:31.229Z,6.83
2019-01-26T05:52:00.847Z,5.10
2019-01-26T05:54:30.458Z,3.22
2019-01-26T05:57:00.083Z,2.98
2019-01-26T05:59:29.718Z,3.45
2019-01-26T06:01:59.412Z,4.70
2019-01-26T06:04:29.024Z,8.58
2019-01-26T06:06:58.718Z,3.22
2019-01-26T06:09:28.375Z,3.83
2019-01-26T06:11:58.015Z,2.87
2019-01-26T06:14:27.643Z,2.92
2019-01-26T06:16:57.252Z,3.40
2019-01-26T06:19:27.828Z,2.80
2019-01-26T06:21:57.456Z,9.58
2019-01-26T06:24:27.073Z,4.08
2019-01-26T06:26:56.675Z,5.42
2019-01-26T06:29:26.306Z,4.67
2019-01-26T06:31:55.956Z,3.30
2019-01-26T06:34:25.581Z,3.05
2019-01-26T06:36:55.197Z,7.92
2019-01-26T06:39:24.797Z,4.30
2019-01-26T06:41:54.412Z,3.22
2019-01-26T06:44:24.033Z,4.60
2019-01-26T06:46:53.658Z,2.25
2019-01-26T06:49:23.369Z,4.25
2019-01-26T06:51:55.747Z,2.77
2019-01-26T06:54:25.532Z,2.20
2019-01-26T06:56:58.089Z,2.67
2019-01-26T06:59:27.739Z,7.78
2019-01-26T07:01:57.679Z,1.85
2019-01-26T07:04:47.595Z,7.35
2019-01-26T07:07:18.885Z,6.67
2019-01-26T07:09:48.502Z,4.08
2019-01-26T07:12:19.231Z,4.55
2019-01-26T07:14:48.938Z,1.57
2019-01-26T07:17:18.562Z,3.45
2019-01-26T07:19:48.237Z,10.43
2019-01-26T07:22:17.869Z,3.02
2019-01-26T07:24:47.484Z,4.25
2019-01-26T07:27:17.278Z,3.27
2019-01-26T07:29:46.903Z,1.75
2019-01-26T07:32:18.164Z,6.75
2019-01-26T07:34:47.789Z,9.13
2019-01-26T07:37:17.783Z,13.88
2019-01-26T07:39:47.520Z,3.47
2019-01-26T07:42:17.163Z,2.62
2019-01-26T07:44:49.539Z,2.40
2019-01-26T07:47:19.168Z,3.40
2019-01-26T07:49:49.121Z,2.98
2019-01-26T07:52:18.782Z,2.90
2019-01-26T07:54:48.425Z,6.25
2019-01-26T07:57:19.049Z,4.12
2019-01-26T07:59:48.677Z,3.45
2019-01-26T08:02:18.417Z,3.50
2019-01-26T08:04:48.066Z,5.03
2019-01-26T08:07:17.675Z,5.72
2019-01-26T08:09:48.577Z,3.85
2019-01-26T08:12:19.803Z,2.92
2019-01-26T08:14:49.452Z,2.10
2019-01-26T08:17:20.777Z,3.65
2019-01-26T08:19:53.242Z,2.98
2019-01-26T08:22:22.865Z,4.03
2019-01-26T08:24:55.167Z,3.60
2019-01-26T08:27:24.796Z,8.38
2019-01-26T08:29:54.417Z,2.67
2019-01-26T08:32:24.117Z,1.75
2019-01-26T08:34:53.735Z,3.50
2019-01-26T08:37:23.347Z,2.42
2019-01-26T08:39:52.975Z,3.47
2019-01-26T08:42:22.602Z,3.22
2019-01-26T08:44:52.258Z,2.30
2019-01-26T08:47:21.920Z,3.27
2019-01-26T08:49:51.553Z,5.45
2019-01-26T08:52:21.426Z,5.37
2019-01-26T08:54:51.081Z,30.45
2019-01-26T08:57:20.809Z,45.35
2019-01-26T08:59:50.554Z,75.62
2019-01-26T09:02:37.835Z,89.25
2019-01-26T09:05:09.724Z,170.35
2019-01-26T09:07:39.365Z,276.07
2019-01-26T09:10:09.136Z,305.10
2019-01-26T09:12:38.794Z,364.48
2019-01-26T09:15:09.657Z,405.50
2019-01-26T09:17:39.298Z,385.90
2019-01-26T09:20:11.724Z,355.00
2019-01-26T09:22:42.884Z,351.25
2019-01-26T09:25:13.051Z,348.00
2019-01-26T09:27:42.911Z,358.15
2019-01-26T09:30:13.243Z,313.52
2019-01-26T09:32:42.922Z,298.57
2019-01-26T09:35:12.705Z,279.10
2019-01-26T09:37:42.515Z,332.15
2019-01-26T09:40:12.473Z,288.48
2019-01-26T09:42:42.259Z,285.35
2019-01-26T09:45:13.283Z,286.23
2019-01-26T09:47:42.987Z,246.60
2019-01-26T09:50:13.194Z,269.07
2019-01-26T09:52:42.843Z,259.32
2019-01-26T09:55:12.646Z,233.17
2019-01-26T09:57:44.341Z,213.07
2019-01-26T10:00:16.173Z,220.95
2019-01-26T10:02:45.821Z,238.65
2019-01-26T10:05:15.826Z,225.40
2019-01-26T10:07:47.454Z,200.00
2019-01-26T10:10:17.524Z,214.48
2019-01-26T10:12:47.445Z,184.57
2019-01-26T10:15:17.252Z,223.65
2019-01-26T10:17:47.139Z,185.07
2019-01-26T10:20:21.957Z,192.50
2019-01-26T10:22:51.702Z,199.68
2019-01-26T10:25:21.525Z,191.57
2019-01-26T10:27:51.163Z,159.52
2019-01-26T10:30:27.919Z,181.72
2019-01-26T10:32:57.542Z,178.27
2019-01-26T10:35:39.447Z,155.65
2019-01-26T10:38:15.175Z,183.00
2019-01-26T10:41:02.246Z,145.47
2019-01-26T10:43:33.601Z,139.18
2019-01-26T10:46:04.486Z,129.32
2019-01-26T10:48:35.275Z,137.62
2019-01-26T10:51:09.662Z,137.65
2019-01-26T10:53:39.917Z,135.10
2019-01-26T10:56:09.558Z,146.87
2019-01-26T10:58:39.185Z,119.72
2019-01-26T11:01:08.849Z,121.07
2019-01-26T11:03:38.787Z,116.15
2019-01-26T11:06:10.255Z,124.85
2019-01-26T11:08:39.913Z,134.72
2019-01-26T11:11:09.617Z,159.20
2019-01-26T11:13:41.068Z,103.17
2019-01-26T11:16:13.529Z,117.47
2019-01-26T11:18:43.231Z,106.25
2019-01-26T11:21:12.946Z,107.95
2019-01-26T11:23:42.572Z,97.75
2019-01-26T11:26:12.201Z,107.58
2019-01-26T11:28:41.834Z,81.72
2019-01-26T11:31:12.919Z,91.35
2019-01-26T11:33:42.537Z,98.22
2019-01-26T11:36:14.830Z,77.78
2019-01-26T11:38:45.682Z,100.60
2019-01-26T11:41:16.953Z,98.58
2019-01-26T11:43:46.583Z,89.42
2019-01-26T11:46:27.996Z,87.62
2019-01-26T11:48:58.509Z,92.65
2019-01-26T11:51:43.334Z,104.40
2019-01-26T11:54:13.101Z,82.70
2019-01-26T11:56:50.846Z,72.03
2019-01-26T11:59:22.103Z,90.03
2019-01-26T12:02:20.477Z,77.10
2019-01-26T12:04:54.931Z,64.20
2019-01-26T12:07:29.959Z,69.12
2019-01-26T12:10:02.409Z,71.05
2019-01-26T12:12:34.724Z,61.20
2019-01-26T12:15:09.174Z,78.30
2019-01-26T12:17:38.807Z,80.95
2019-01-26T12:20:11.427Z,80.83
2019-01-26T12:22:43.147Z,58.40
2019-01-26T12:25:14.572Z,53.92
2019-01-26T12:27:44.359Z,65.90
2019-01-26T12:30:16.857Z,55.10
2019-01-26T12:32:46.544Z,61.50
2019-01-26T12:35:16.474Z,52.30
2019-01-26T12:37:46.106Z,59.08
2019-01-26T12:40:15.881Z,62.05
2019-01-26T12:42:45.517Z,55.83
2019-01-26T12:45:17.749Z,46.48
2019-01-26T12:47:47.446Z,50.75
2019-01-26T12:50:17.225Z,59.08
2019-01-26T12:52:46.836Z,60.10
2019-01-26T12:55:16.624Z,51.25
2019-01-26T12:57:46.390Z,58.80
2019-01-26T13:00:18.220Z,55.03
2019-01-26T13:02:49.386Z,63.35
2019-01-26T13:05:19.367Z,55.95
2019-01-26T13:07:54.399Z,46.63
2019-01-26T13:10:27.474Z,33.48
2019-01-26T13:12:57.242Z,46.92
2019-01-26T13:15:27.006Z,55.15
2019-01-26T13:17:56.702Z,47.00
2019-01-26T13:20:26.547Z,35.73
2019-01-26T13:22:56.241Z,47.62
2019-01-26T13:25:25.946Z,39.30
2019-01-26T13:27:55.564Z,37.40
2019-01-26T13:30:25.232Z,61.65
2019-01-26T13:32:55.906Z,43.70
2019-01-26T13:35:25.687Z,42.78
2019-01-26T13:37:55.325Z,35.75
2019-01-26T13:40:25.944Z,40.20
2019-01-26T13:42:55.860Z,52.00
2019-01-26T13:45:25.573Z,30.75
2019-01-26T13:47:56.623Z,27.48
2019-01-26T13:50:26.333Z,35.35
2019-01-26T13:52:56.229Z,38.15
2019-01-26T13:55:25.980Z,35.48
2019-01-26T13:57:55.696Z,36.17
2019-01-26T14:00:27.774Z,33.35
2019-01-26T14:02:57.472Z,30.90
2019-01-26T14:05:27.125Z,35.63
2019-01-26T14:07:57.827Z,30.52
2019-01-26T14:10:27.528Z,24.87
2019-01-26T14:12:57.174Z,32.78
2019-01-26T14:15:27.081Z,31.07
2019-01-26T14:17:56.767Z,24.12
2019-01-26T14:20:28.995Z,28.95
2019-01-26T14:22:59.669Z,34.50
2019-01-26T14:25:30.665Z,31.30
2019-01-26T14:28:00.360Z,27.40
2019-01-26T14:30:39.401Z,21.00
2019-01-26T14:33:09.080Z,24.90
2019-01-26T14:35:38.845Z,31.27
2019-01-26T14:38:08.611Z,31.42
2019-01-26T14:40:38.238Z,20.85
2019-01-26T14:43:08.016Z,28.65
2019-01-26T14:45:37.629Z,41.73
2019-01-26T14:48:07.262Z,25.80
2019-01-26T14:50:36.897Z,39.92
2019-01-26T14:53:06.702Z,23.75
2019-01-26T14:55:36.414Z,25.65
2019-01-26T14:58:07.511Z,25.45
2019-01-26T15:00:39.620Z,26.17
2019-01-26T15:03:09.329Z,18.37
2019-01-26T15:05:39.031Z,22.35
2019-01-26T15:08:08.745Z,32.25
2019-01-26T15:10:38.363Z,19.77
2019-01-26T15:13:07.984Z,19.07
2019-01-26T15:15:37.605Z,20.52
2019-01-26T15:18:07.296Z,13.05
2019-01-26T15:20:38.959Z,20.70
2019-01-26T15:23:08.876Z,24.95
2019-01-26T15:25:38.492Z,12.13
2019-01-26T15:28:12.286Z,12.40
2019-01-26T15:30:43.126Z,16.20
2019-01-26T15:33:13.640Z,15.30
2019-01-26T15:35:43.273Z,16.42
2019-01-26T15:38:33.109Z,17.90
2019-01-26T15:41:03.871Z,18.07
2019-01-26T15:43:35.610Z,15.05
2019-01-26T15:46:05.346Z,12.65
2019-01-26T15:48:34.959Z,10.20
2019-01-26T15:51:04.681Z,16.90
2019-01-26T15:53:34.321Z,16.48
2019-01-26T15:56:04.375Z,28.07
2019-01-26T15:58:35.704Z,21.52
2019-01-26T16:01:07.347Z,11.03
2019-01-26T16:03:37.004Z,17.85
2019-01-26T16:06:06.709Z,15.40
2019-01-26T16:08:36.324Z,12.53
2019-01-26T16:11:07.650Z,12.47
2019-01-26T16:13:37.281Z,22.55
2019-01-26T16:16:11.493Z,16.52
2019-01-26T16:18:41.245Z,14.70
2019-01-26T16:21:10.935Z,13.15
2019-01-26T16:23:40.562Z,11.43
2019-01-26T16:26:10.191Z,8.18
2019-01-26T16:28:39.805Z,11.63
2019-01-26T16:31:09.506Z,13.98
2019-01-26T16:33:40.355Z,13.85
2019-01-26T16:36:11.586Z,9.03
2019-01-26T16:38:41.309Z,7.37
2019-01-26T16:41:10.923Z,12.73
2019-01-26T16:43:42.239Z,9.23
2019-01-26T16:46:11.867Z,7.87
2019-01-26T16:48:41.479Z,11.68
2019-01-26T16:51:12.580Z,21.85
2019-01-26T16:53:42.211Z,20.00
2019-01-26T16:56:11.831Z,8.35
2019-01-26T16:58:41.705Z,11.10
2019-01-26T17:01:11.408Z,11.03
2019-01-26T17:03:41.012Z,11.75
2019-01-26T17:06:10.762Z,8.63
2019-01-26T17:08:40.371Z,7.22
2019-01-26T17:11:10.976Z,9.80
2019-01-26T17:13:40.606Z,9.20
2019-01-26T17:16:10.242Z,18.57
2019-01-26T17:18:46.025Z,9.23
2019-01-26T17:21:11.312Z,7.78
2019-01-26T17:23:40.920Z,9.55
2019-01-26T17:26:10.530Z,15.68
2019-01-26T17:28:40.147Z,7.83
2019-01-26T17:31:09.774Z,9.05
2019-01-26T17:33:43.101Z,10.50
2019-01-26T17:36:12.729Z,8.88
2019-01-26T17:38:42.428Z,8.33
2019-01-26T17:41:12.039Z,8.93
2019-01-26T17:43:41.665Z,12.15
2019-01-26T17:46:11.297Z,9.08
2019-01-26T17:48:41.021Z,6.35
2019-01-26T17:51:10.648Z,10.90
2019-01-26T17:53:40.257Z,7.87
2019-01-26T17:56:09.878Z,6.70
2019-01-26T17:58:39.487Z,10.05
2019-01-26T18:01:14.128Z,13.22
2019-01-26T18:03:43.938Z,6.92
2019-01-26T18:06:17.834Z,7.05
2019-01-26T18:08:47.461Z,16.07
2019-01-26T18:11:17.147Z,5.55
2019-01-26T18:13:46.765Z,9.08
2019-01-26T18:16:16.375Z,6.50
2019-01-26T18:18:46.056Z,8.68
2019-01-26T18:21:15.663Z,9.70
2019-01-26T18:23:45.436Z,5.10
2019-01-26T18:26:15.121Z,6.87
2019-01-26T18:28:44.744Z,10.23
2019-01-26T18:31:14.351Z,8.85
2019-01-26T18:33:43.974Z,6.97
2019-01-26T18:36:16.674Z,9.30
2019-01-26T18:38:48.591Z,9.90
2019-01-26T18:41:18.211Z,4.15
2019-01-26T18:43:47.833Z,12.03
2019-01-26T18:46:17.636Z,6.10
2019-01-26T18:48:47.248Z,7.25
2019-01-26T18:51:16.963Z,4.42
2019-01-26T18:53:46.651Z,9.20
2019-01-26T18:56:16.327Z,6.95
2019-01-26T18:58:47.141Z,4.70
2019-01-26T19:01:16.752Z,8.33
2019-01-26T19:04:16.611Z,5.60
2019-01-26T19:06:46.225Z,8.38
2019-01-26T19:09:15.912Z,4.30
2019-01-26T19:11:45.600Z,5.80
2019-01-26T19:14:15.225Z,9.83
2019-01-26T19:16:44.919Z,5.92
2019-01-26T19:19:15.377Z,7.10
2019-01-26T19:21:45.013Z,4.53
2019-01-26T19:24:14.653Z,5.47
2019-01-26T19:26:44.277Z,5.90
2019-01-26T19:29:13.947Z,5.92
2019-01-26T19:31:43.571Z,4.03
2019-01-26T19:34:13.186Z,7.30
2019-01-26T19:36:42.900Z,5.85
2019-01-26T19:39:13.815Z,5.15
2019-01-26T19:41:43.431Z,7.30
2019-01-26T19:44:13.133Z,8.03
2019-01-26T19:46:42.835Z,9.70
2019-01-26T19:49:12.459Z,3.60
2019-01-26T19:51:42.169Z,8.93
2019-01-26T19:54:11.781Z,6.20
2019-01-26T19:56:41.417Z,5.70
2019-01-26T19:59:12.159Z,8.43
2019-01-26T20:01:41.789Z,5.45
2019-01-26T20:04:11.586Z,6.28
2019-01-26T20:06:41.286Z,4.00
2019-01-26T20:09:11.330Z,4.30
2019-01-26T20:11:41.083Z,11.45
2019-01-26T20:14:10.785Z,2.90
2019-01-26T20:16:41.367Z,4.22
2019-01-26T20:19:10.997Z,7.47
2019-01-26T20:21:40.702Z,6.50
2019-01-26T20:24:10.314Z,6.47
2019-01-26T20:26:39.916Z,5.30
2019-01-26T20:29:09.550Z,15.90
2019-01-26T20:31:39.169Z,3.05
2019-01-26T20:34:08.861Z,3.27
2019-01-26T20:36:38.475Z,2.67
2019-01-26T20:39:09.283Z,5.12
2019-01-26T20:41:38.909Z,3.85
2019-01-26T20:44:08.587Z,3.90
2019-01-26T20:46:38.351Z,3.47
2019-01-26T20:49:07.982Z,5.37
2019-01-26T20:51:37.600Z,6.35
2019-01-26T20:54:07.283Z,4.50
2019-01-26T20:56:36.889Z,3.98
2019-01-26T20:59:06.651Z,2.98
2019-01-26T21:01:36.270Z,4.65
2019-01-26T21:04:06.027Z,4.47
2019-01-26T21:06:35.703Z,5.35
2019-01-26T21:09:08.354Z,5.87
2019-01-26T21:11:38.031Z,4.42
2019-01-26T21:14:07.749Z,6.53
2019-01-26T21:16:37.361Z,3.98
2019-01-26T21:19:07.125Z,7.92
2019-01-26T21:21:39.463Z,3.92
2019-01-26T21:24:10.707Z,6.22
2019-01-26T21:26:40.331Z,2.65
2019-01-26T21:29:10.073Z,5.00
2019-01-26T21:31:39.703Z,5.80
2019-01-26T21:34:09.383Z,4.20
2019-01-26T21:36:38.991Z,4.47
2019-01-26T21:39:09.253Z,6.03
2019-01-26T21:41:38.869Z,4.87
2019-01-26T21:44:08.566Z,3.00
2019-01-26T21:46:39.151Z,4.37
2019-01-26T21:49:08.756Z,3.47
2019-01-26T21:51:39.031Z,4.65
2019-01-26T21:54:08.857Z,5.60
2019-01-26T21:56:38.469Z,3.83
2019-01-26T21:59:08.100Z,3.60
2019-01-26T22:01:37.786Z,5.58
2019-01-26T22:04:07.387Z,9.08
2019-01-26T22:06:37.157Z,4.33
2019-01-26T22:09:09.071Z,3.75
2019-01-26T22:11:38.681Z,8.15
2019-01-26T22:14:08.574Z,3.42
2019-01-26T22:16:38.198Z,4.78
2019-01-26T22:19:07.827Z,5.08
2019-01-26T22:21:37.609Z,3.67
2019-01-26T22:24:07.219Z,4.60
2019-01-26T22:26:36.841Z,3.08
2019-01-26T22:29:06.547Z,2.60
2019-01-26T22:31:36.155Z,3.27
2019-01-26T22:34:05.917Z,5.05
2019-01-26T22:36:35.603Z,4.28
2019-01-26T22:39:08.520Z,5.85
2019-01-26T22:41:38.196Z,3.95
2019-01-26T22:44:07.896Z,4.67
2019-01-26T22:46:37.581Z,4.50
2019-01-26T22:49:07.192Z,3.58
2019-01-26T22:51:36.918Z,3.83
2019-01-26T22:54:06.610Z,2.80
2019-01-26T22:56:36.233Z,4.35
2019-01-26T22:59:05.929Z,1.87
2019-01-26T23:01:41.269Z,4.37
2019-01-26T23:04:32.084Z,2.92
2019-01-26T23:07:46.434Z,4.10
2019-01-26T23:11:18.512Z,9.00
2019-01-26T23:14:14.796Z,4.12
2019-01-26T23:17:03.817Z,2.50
2019-01-26T23:19:53.810Z,1.80
2019-01-26T23:22:59.650Z,4.00
2019-01-26T23:25:50.745Z,2.92
2019-01-26T23:28:54.234Z,3.02
2019-01-26T23:31:23.935Z,9.10
2019-01-26T23:33:56.549Z,2.55
2019-01-26T23:36:26.388Z,2.72
2019-01-26T23:39:02.165Z,3.08
2019-01-26T23:41:27.315Z,2.40
2019-01-26T23:43:56.941Z,4.75
2019-01-26T23:46:26.642Z,2.27
2019-01-26T23:48:56.271Z,2.45
2019-01-26T23:51:25.951Z,3.20
2019-01-26T23:53:55.568Z,4.87
2019-01-26T23:56:25.329Z,3.80
2019-01-26T23:58:54.983Z,4.03
